CYKL

Schefferville Airport

Schefferville, Quebec, Canada
METAR CYKL 191600Z AUTO 31010G17KT 8SM SCT014 M35/M40 A2988 RMK SLP210
Observed Flight Rules
Jan-19 @ 16:00 UTC (38 minutes ago) Visual Flight Rules
Wind Visibility Clouds
310° at 10 knots
 Gusting to 17 knots
8 miles
  • Scattered at 1,400' AGL
Temperatures Readings
Current -35°C / -31°F
Dewpoint -40°C / -40°F
Humidity 60%
Altimeter 29.88" Hg
Pressure 1021 hPa
Elevation 521
METAR CYKL 191600Z AUTO 31010G17KT 8SM SCT014 M35/M40 A2988 RMK SLP210
Observed Flight Rules
Jan-19 @ 16:00 UTC
(38 minutes ago)
VFR
Wind Visibility
310° at 10 knots
 Gusting to 17 knots
8 miles
Clouds
  • Scattered at 1,400' AGL
Temperature Dewpoint
-35°C / -31°F -40°C / -40°F
Humidity Altimeter Pressure
60% 29.88" Hg 1021 hPa